Track Куприянов Алексей

Time Latitude Longitude Accuracy (66% radius in meters) Altitude (meters) Speed (km/hour) Bearing (degrees) Battery (%) GPS flag
11:23:10 56.992245 39.438587 2 171.39999389648 0.97999995946884 318.59252929688 2 1 delete
11:23:00 56.992167 39.438685 2 170.69999694824 1.0499999523163 326.06872558594 2 1 delete
11:22:49 56.992082 39.438855 8.5 174.69999694824 0.96999996900558 326.27746582031 2 1 delete
11:12:44 56.990641 39.450456 2.5 185.89999389648 0.75999999046326 272.94982910156 6 1 delete
11:12:34 56.990625 39.450653 2.5 185.39999389648 1.0099999904633 280.17883300781 6 1 delete
11:12:24 56.990584 39.450924 3.5 186.60000610352 0.75 255.82763671875 6 1 delete
11:12:13 56.990657 39.451087 8.5 192.60000610352 0.47999998927116 272.86743164062 6 1 delete
11:02:00 56.984354 39.454317 1.5 177 1.1399999856949 341.74621582031 6 1 delete
11:01:50 56.984226 39.454348 1.5 178.10000610352 1.2999999523163 358.06091308594 6 1 delete
11:01:45 56.984165 39.454343 1.5 179 1.0499999523163 4.32861328125 6 1 delete
11:01:40 56.984110 39.454335 1.5 178.80000305176 1 7.8057861328125 6 1 delete
11:01:30 56.983998 39.454278 1.5 177.30000305176 0.93000000715256 18.995361328125 6 1 delete
11:01:20 56.983872 39.454150 1.5 177.69999694824 1.2599999904633 31.887817382812 6 1 delete
11:01:10 56.983769 39.454002 1.5 178.5 1.1499999761581 31.981201171875 6 1 delete
11:01:00 56.983684 39.453814 2 180.39999389648 1.1699999570847 54.195556640625 6 1 delete
11:00:50 56.983610 39.453604 2 182.60000610352 0.83999997377396 48.724365234375 6 1 delete
11:00:40 56.983533 39.453434 2.5 184.19999694824 0.59999996423721 37.128295898438 6 1 delete
11:00:35 56.983489 39.453385 2.5 183.89999389648 0.72999995946884 42.1875 6 1 delete
11:00:30 56.983448 39.453326 2.5 180.39999389648 0.6599999666214 44.945068359375 6 1 delete
11:00:19 56.983366 39.453165 8 170.89999389648 0.76999998092651 34.151000976562 6 1 delete
10:50:07 56.978251 39.451998 1 178.30000305176 0.94999998807907 313.42895507812 7 1 delete
10:49:57 56.978180 39.452138 1.5 178.39999389648 1.039999961853 312.0556640625 7 1 delete
10:49:47 56.978096 39.452276 1.5 177.69999694824 0.93999999761581 318.427734375 7 1 delete
10:49:37 56.978013 39.452374 1.5 176.5 1.1699999570847 325.107421875 7 1 delete
10:49:27 56.977927 39.452493 2 175.5 1.25 327.65625 7 1 delete
10:49:22 56.977884 39.452552 2 174.69999694824 1.1100000143051 313.96179199219 7 1 delete
10:49:17 56.977842 39.452634 2 175.19999694824 1.1599999666214 314.78576660156 7 1 delete
10:49:01 56.977738 39.452780 8.5 173.80000305176 0.85999995470047 315.27465820312 7 1 delete
10:38:46 56.976172 39.454896 5.5 178 0 314.71435546875 7 1 delete
10:38:25 56.976184 39.454822 10 181.39999389648 0.17000000178814 40.567016601562 7 1 delete
10:28:16 56.973745 39.454926 2 170.10000610352 1.6699999570847 15.4248046875 9 1 delete
10:28:11 56.973676 39.454890 2 169.30000305176 1.6799999475479 16.051025390625 9 1 delete
10:28:06 56.973579 39.454864 2.5 169.19999694824 1.7400000095367 14.7216796875 9 1 delete
10:28:01 56.973484 39.454850 3 171 1.6899999380112 12.705688476562 9 1 delete
10:27:55 56.973382 39.454799 7.5 170.10000610352 1.6499999761581 13.985595703125 9 1 delete
10:17:45 56.964243 39.457453 2.5 186.10000610352 1.4499999284744 318.88366699219 10 1 delete
10:17:35 56.964172 39.457698 2.5 187.10000610352 1.2999999523163 319.95483398438 10 1 delete
10:17:25 56.964070 39.457952 4.5 196.30000305176 1.25 318.31787109375 10 1 delete
10:17:19 56.963905 39.457984 10 189.30000305176 0.37999999523163 350.50231933594 10 1 delete
10:07:15 56.958664 39.463770 2 183.19999694824 0.9899999499321 3.1695556640625 10 1 delete
10:07:10 56.958613 39.463804 2.5 180.69999694824 1.1499999761581 357.39074707031 10 1 delete
10:07:00 56.958506 39.463765 3 179.10000610352 1.2400000095367 354.27062988281 10 1 delete
10:06:55 56.958399 39.463689 4 173.89999389648 0 0 10 1 delete
10:06:49 56.958344 39.463884 8.5 190.39999389648 1.1399999856949 5.6195068359375 10 1 delete
09:56:39 56.953982 39.455087 2 170.5 0.93000000715256 83.14453125 11 1 delete
09:56:34 56.953958 39.454999 2.5 171.60000610352 1.1799999475479 68.252563476562 11 1 delete
09:56:29 56.953928 39.454891 2.5 168.69999694824 1.0599999427795 71.295776367188 11 1 delete
09:56:19 56.953882 39.454746 4 172.39999389648 1.4199999570847 62.545166015625 11 1 delete
09:56:13 56.953820 39.454605 9 176.5 1.1599999666214 89.478149414062 11 1 delete
09:46:03 56.948341 39.446633 2 173.89999389648 1.5199999809265 53.525390625 11 1 delete